Dallas, Texas
Traffic Map
Current Weather Conditions
Dallas, Texas
Overcast Light Rain
Overcast
18°
Feels Like: 18°
Wind Chill: 18° Ceiling: 12000
Heat Index: 18° Visibility: 10mi
Dew Point: 17° Wind: 10mph
Humidity: 93% Direction: 70° (ENE)
Pressure: 29.95in Gusts: 0mph
Raw Report DataKDAL 180353Z 07009KT 10SM -RA FEW075 SCT095 OVC120 18/17 A2995 RMK AO2 TSE31 SLP139 FRQ LTGICCG DSNT NE-E TS MOVD NE P0014 T01780167
Traffic Incident Summary
Active as of:
Severity:
Category:
InformationThere was an issue retrieving the traffic information for this location. Please try a different location or try again shortly.
Advertisements
Track Severe Weather on mobile